This is the latest recevied weather packets stored in our database for station/object K4GSL. If no packets are shown the sender has not sent any weather packets the latest 10 day(s).
| Time | Temp. | Humidity | Pressure | Rain* | Wind** | Luminosity | Snow |
|---|---|---|---|---|---|---|---|
| 1778038729 | 13.89° C | 88% | 1020 hPa | 0 mm | - | 0 W/m² | - |
| 1778038425 | 15.56° C | 84% | 1019.8 hPa | 0 mm | - | 1 W/m² | - |
| 1778038123 | 15.56° C | 84% | 1019.9 hPa | 0 mm | - | 1 W/m² | - |
| 1778037819 | 15.56° C | 84% | 1019.9 hPa | 0 mm | - | 1 W/m² | - |
| 1778037516 | 16.11° C | 82% | 1019.9 hPa | 0 mm | - | 3 W/m² | - |
| 1778037214 | 16.11° C | 82% | 1019.8 hPa | 0 mm | - | 3 W/m² | - |
| 1778036911 | 18.89° C | 72% | 1019.8 hPa | 0 mm | - | 20 W/m² | - |
| 1778036609 | 18.89° C | 72% | 1019.6 hPa | 0 mm | - | 20 W/m² | - |
| 1778036305 | 18.89° C | 72% | 1019.7 hPa | 0 mm | - | 20 W/m² | - |
| 1778036002 | 18.89° C | 72% | 1019.6 hPa | 0 mm | - | 20 W/m² | - |
| 1778035699 | 18.89° C | 72% | 1019.7 hPa | 0 mm | - | 20 W/m² | - |
| 1778035396 | 18.89° C | 72% | 1019.5 hPa | 0 mm | - | 20 W/m² | - |
| 1778035092 | 18.89° C | 72% | 1019.5 hPa | 0 mm | - | 20 W/m² | - |
| 1778034789 | 18.89° C | 72% | 1019.5 hPa | 0 mm | - | 30 W/m² | - |
| 1778034485 | 18.89° C | 72% | 1019.6 hPa | 0 mm | - | 30 W/m² | - |
| 1778034183 | 18.89° C | 72% | 1019.6 hPa | 0 mm | - | 30 W/m² | - |
| 1778033881 | 18.89° C | 72% | 1019.5 hPa | 0 mm | - | 30 W/m² | - |
| 1778033578 | 18.89° C | 72% | 1019.4 hPa | 0 mm | - | 29 W/m² | - |
| 1778033275 | 19.44° C | 71% | 1019.5 hPa | 0 mm | - | 31 W/m² | - |
| 1778032973 | 18.89° C | 71% | 1019.7 hPa | 0 mm | - | 39 W/m² | - |
| 1778032670 | 19.44° C | 70% | 1019.5 hPa | 0 mm | - | 38 W/m² | - |
| 1778032367 | 20° C | 69% | 1019.6 hPa | 0 mm | - | 41 W/m² | - |
| 1778032064 | 19.44° C | 70% | 1019.6 hPa | 0 mm | - | 53 W/m² | - |
| 1778031761 | 19.44° C | 70% | 1019.5 hPa | 0 mm | - | 53 W/m² | - |
| 1778031458 | 18.89° C | 73% | 1019.5 hPa | 0 mm | - | 92 W/m² | - |
* Rain latest hour (hover to see other rain measurements)
** Current wind speed in m/s (hover to see current wind gust speed)